sensor_id;sensor_type;location;lat;lon;timestamp;P1;durP1;ratioP1;P2;durP2;ratioP2
46701;SDS011;33449;50.712;7.124;2023-02-01T00:00:15;22.13;;;10.07;;
46701;SDS011;33449;50.712;7.124;2023-02-01T00:02:42;23.50;;;9.30;;
46701;SDS011;33449;50.712;7.124;2023-02-01T00:05:10;26.50;;;9.38;;
46701;SDS011;33449;50.712;7.124;2023-02-01T00:07:37;27.80;;;11.73;;
46701;SDS011;33449;50.712;7.124;2023-02-01T00:10:04;22.20;;;9.88;;
46701;SDS011;33449;50.712;7.124;2023-02-01T00:12:34;25.02;;;9.35;;
46701;SDS011;33449;50.712;7.124;2023-02-01T00:15:13;18.98;;;8.02;;
46701;SDS011;33449;50.712;7.124;2023-02-01T00:17:41;21.00;;;9.40;;
46701;SDS011;33449;50.712;7.124;2023-02-01T00:20:08;25.33;;;11.05;;
46701;SDS011;33449;50.712;7.124;2023-02-01T00:22:35;27.27;;;9.98;;
46701;SDS011;33449;50.712;7.124;2023-02-01T00:25:02;21.17;;;9.00;;
46701;SDS011;33449;50.712;7.124;2023-02-01T00:27:29;19.00;;;9.68;;
46701;SDS011;33449;50.712;7.124;2023-02-01T00:30:04;17.55;;;9.15;;
46701;SDS011;33449;50.712;7.124;2023-02-01T00:32:32;27.25;;;9.85;;
46701;SDS011;33449;50.712;7.124;2023-02-01T00:34:59;26.13;;;11.75;;
46701;SDS011;33449;50.712;7.124;2023-02-01T00:37:26;19.33;;;8.18;;
46701;SDS011;33449;50.712;7.124;2023-02-01T00:39:53;22.05;;;7.47;;
46701;SDS011;33449;50.712;7.124;2023-02-01T00:42:22;23.05;;;9.65;;
46701;SDS011;33449;50.712;7.124;2023-02-01T00:45:06;14.88;;;7.13;;
46701;SDS011;33449;50.712;7.124;2023-02-01T00:47:33;22.90;;;7.60;;
46701;SDS011;33449;50.712;7.124;2023-02-01T00:50:00;22.75;;;6.28;;
46701;SDS011;33449;50.712;7.124;2023-02-01T00:52:27;16.95;;;6.97;;
46701;SDS011;33449;50.712;7.124;2023-02-01T00:54:54;17.15;;;5.75;;
46701;SDS011;33449;50.712;7.124;2023-02-01T00:57:22;17.42;;;5.93;;
46701;SDS011;33449;50.712;7.124;2023-02-01T01:00:06;15.23;;;5.22;;
46701;SDS011;33449;50.712;7.124;2023-02-01T01:02:33;25.10;;;6.90;;
46701;SDS011;33449;50.712;7.124;2023-02-01T01:05:00;17.00;;;6.10;;
46701;SDS011;33449;50.712;7.124;2023-02-01T01:07:28;14.25;;;5.95;;
46701;SDS011;33449;50.712;7.124;2023-02-01T01:09:55;7.78;;;3.67;;
46701;SDS011;33449;50.712;7.124;2023-02-01T01:12:22;18.30;;;4.35;;
46701;SDS011;33449;50.712;7.124;2023-02-01T01:15:08;16.73;;;4.72;;
46701;SDS011;33449;50.712;7.124;2023-02-01T01:17:36;12.18;;;3.90;;
46701;SDS011;33449;50.712;7.124;2023-02-01T01:20:03;17.92;;;4.30;;
46701;SDS011;33449;50.712;7.124;2023-02-01T01:22:33;14.43;;;4.72;;
46701;SDS011;33449;50.712;7.124;2023-02-01T01:25:00;16.02;;;4.80;;
46701;SDS011;33449;50.712;7.124;2023-02-01T01:29:57;11.82;;;4.05;;
46701;SDS011;33449;50.712;7.124;2023-02-01T01:32:24;11.88;;;6.15;;
46701;SDS011;33449;50.712;7.124;2023-02-01T01:34:51;15.52;;;4.78;;
46701;SDS011;33449;50.712;7.124;2023-02-01T01:37:18;16.20;;;3.88;;
46701;SDS011;33449;50.712;7.124;2023-02-01T01:39:45;14.18;;;5.05;;
46701;SDS011;33449;50.712;7.124;2023-02-01T01:42:13;14.00;;;3.53;;
46701;SDS011;33449;50.712;7.124;2023-02-01T01:44:56;17.33;;;4.47;;
46701;SDS011;33449;50.712;7.124;2023-02-01T01:47:25;9.48;;;4.68;;
46701;SDS011;33449;50.712;7.124;2023-02-01T01:49:52;11.48;;;4.57;;
46701;SDS011;33449;50.712;7.124;2023-02-01T01:52:22;16.90;;;4.15;;
46701;SDS011;33449;50.712;7.124;2023-02-01T01:54:50;18.27;;;4.28;;
46701;SDS011;33449;50.712;7.124;2023-02-01T01:59:50;10.52;;;4.03;;
46701;SDS011;33449;50.712;7.124;2023-02-01T02:02:19;20.60;;;5.25;;
46701;SDS011;33449;50.712;7.124;2023-02-01T02:04:47;19.73;;;5.07;;
46701;SDS011;33449;50.712;7.124;2023-02-01T02:07:16;20.55;;;5.10;;
46701;SDS011;33449;50.712;7.124;2023-02-01T02:09:44;22.50;;;6.50;;
46701;SDS011;33449;50.712;7.124;2023-02-01T02:12:25;20.08;;;4.90;;
46701;SDS011;33449;50.712;7.124;2023-02-01T02:14:52;16.77;;;4.50;;
46701;SDS011;33449;50.712;7.124;2023-02-01T02:17:29;11.43;;;4.90;;
46701;SDS011;33449;50.712;7.124;2023-02-01T02:20:07;17.85;;;5.10;;
46701;SDS011;33449;50.712;7.124;2023-02-01T02:22:47;16.58;;;5.05;;
46701;SDS011;33449;50.712;7.124;2023-02-01T02:30:52;17.55;;;5.53;;
46701;SDS011;33449;50.712;7.124;2023-02-01T02:33:28;19.33;;;5.50;;
46701;SDS011;33449;50.712;7.124;2023-02-01T02:38:52;21.40;;;6.35;;
46701;SDS011;33449;50.712;7.124;2023-02-01T02:41:42;20.17;;;5.10;;
46701;SDS011;33449;50.712;7.124;2023-02-01T02:47:46;17.00;;;5.10;;
46701;SDS011;33449;50.712;7.124;2023-02-01T02:50:19;20.23;;;5.38;;
46701;SDS011;33449;50.712;7.124;2023-02-01T02:53:11;19.05;;;4.50;;
46701;SDS011;33449;50.712;7.124;2023-02-01T02:55:58;18.55;;;5.65;;
46701;SDS011;33449;50.712;7.124;2023-02-01T02:58:44;18.42;;;6.47;;
46701;SDS011;33449;50.712;7.124;2023-02-01T03:01:31;26.70;;;7.47;;
46701;SDS011;33449;50.712;7.124;2023-02-01T03:04:17;14.00;;;5.45;;
46701;SDS011;33449;50.712;7.124;2023-02-01T03:06:46;22.45;;;5.28;;
46701;SDS011;33449;50.712;7.124;2023-02-01T03:09:14;13.50;;;5.20;;
46701;SDS011;33449;50.712;7.124;2023-02-01T03:11:43;20.65;;;8.90;;
46701;SDS011;33449;50.712;7.124;2023-02-01T03:14:33;18.60;;;5.50;;
46701;SDS011;33449;50.712;7.124;2023-02-01T03:17:11;19.08;;;4.57;;
46701;SDS011;33449;50.712;7.124;2023-02-01T03:19:40;22.65;;;6.05;;
46701;SDS011;33449;50.712;7.124;2023-02-01T03:22:17;20.58;;;4.75;;
46701;SDS011;33449;50.712;7.124;2023-02-01T03:27:20;23.85;;;4.78;;
46701;SDS011;33449;50.712;7.124;2023-02-01T03:32:36;15.32;;;4.50;;
46701;SDS011;33449;50.712;7.124;2023-02-01T03:35:23;14.85;;;4.20;;
46701;SDS011;33449;50.712;7.124;2023-02-01T03:37:53;24.25;;;5.30;;
46701;SDS011;33449;50.712;7.124;2023-02-01T03:40:23;20.85;;;5.90;;
46701;SDS011;33449;50.712;7.124;2023-02-01T03:42:51;12.40;;;3.90;;
46701;SDS011;33449;50.712;7.124;2023-02-01T03:50:19;18.20;;;4.75;;
46701;SDS011;33449;50.712;7.124;2023-02-01T03:53:05;17.88;;;4.85;;
46701;SDS011;33449;50.712;7.124;2023-02-01T03:55:33;18.02;;;4.30;;
46701;SDS011;33449;50.712;7.124;2023-02-01T04:01:01;14.07;;;4.72;;
46701;SDS011;33449;50.712;7.124;2023-02-01T04:03:28;19.98;;;5.65;;
46701;SDS011;33449;50.712;7.124;2023-02-01T04:05:55;18.13;;;5.15;;
46701;SDS011;33449;50.712;7.124;2023-02-01T04:08:23;32.42;;;5.85;;
46701;SDS011;33449;50.712;7.124;2023-02-01T04:10:50;13.43;;;4.28;;
46701;SDS011;33449;50.712;7.124;2023-02-01T04:13:17;26.70;;;6.45;;
46701;SDS011;33449;50.712;7.124;2023-02-01T04:15:44;15.73;;;5.22;;
46701;SDS011;33449;50.712;7.124;2023-02-01T04:18:11;18.73;;;5.13;;
46701;SDS011;33449;50.712;7.124;2023-02-01T04:20:40;21.85;;;6.78;;
46701;SDS011;33449;50.712;7.124;2023-02-01T04:23:23;20.25;;;6.13;;
46701;SDS011;33449;50.712;7.124;2023-02-01T04:25:50;12.60;;;4.45;;
46701;SDS011;33449;50.712;7.124;2023-02-01T04:28:21;18.15;;;5.43;;
46701;SDS011;33449;50.712;7.124;2023-02-01T04:30:48;15.50;;;5.30;;
46701;SDS011;33449;50.712;7.124;2023-02-01T04:33:16;18.63;;;5.22;;
46701;SDS011;33449;50.712;7.124;2023-02-01T04:38:35;12.98;;;3.95;;
46701;SDS011;33449;50.712;7.124;2023-02-01T04:41:14;18.13;;;5.22;;
46701;SDS011;33449;50.712;7.124;2023-02-01T04:43:48;21.35;;;5.60;;
46701;SDS011;33449;50.712;7.124;2023-02-01T04:46:18;14.55;;;5.07;;
46701;SDS011;33449;50.712;7.124;2023-02-01T04:48:45;23.35;;;5.32;;
46701;SDS011;33449;50.712;7.124;2023-02-01T04:51:12;18.25;;;5.65;;
46701;SDS011;33449;50.712;7.124;2023-02-01T04:56:12;19.27;;;5.28;;
46701;SDS011;33449;50.712;7.124;2023-02-01T04:58:39;26.33;;;8.45;;
46701;SDS011;33449;50.712;7.124;2023-02-01T05:01:06;21.85;;;5.63;;
46701;SDS011;33449;50.712;7.124;2023-02-01T05:03:34;15.30;;;5.40;;
46701;SDS011;33449;50.712;7.124;2023-02-01T05:06:04;16.80;;;5.15;;
46701;SDS011;33449;50.712;7.124;2023-02-01T05:08:31;18.70;;;4.90;;
46701;SDS011;33449;50.712;7.124;2023-02-01T05:11:12;16.17;;;4.72;;
46701;SDS011;33449;50.712;7.124;2023-02-01T05:14:03;16.85;;;4.43;;
46701;SDS011;33449;50.712;7.124;2023-02-01T05:16:30;14.80;;;4.32;;
46701;SDS011;33449;50.712;7.124;2023-02-01T05:18:57;16.95;;;3.97;;
46701;SDS011;33449;50.712;7.124;2023-02-01T05:21:24;30.55;;;5.78;;
46701;SDS011;33449;50.712;7.124;2023-02-01T05:23:51;16.00;;;4.72;;
46701;SDS011;33449;50.712;7.124;2023-02-01T05:29:07;18.13;;;4.43;;
46701;SDS011;33449;50.712;7.124;2023-02-01T05:31:34;24.42;;;4.60;;
46701;SDS011;33449;50.712;7.124;2023-02-01T05:34:01;12.77;;;4.07;;
46701;SDS011;33449;50.712;7.124;2023-02-01T05:36:29;14.55;;;4.00;;
46701;SDS011;33449;50.712;7.124;2023-02-01T05:38:56;26.02;;;6.57;;
46701;SDS011;33449;50.712;7.124;2023-02-01T05:44:01;21.45;;;4.65;;
46701;SDS011;33449;50.712;7.124;2023-02-01T05:46:29;17.42;;;4.05;;
46701;SDS011;33449;50.712;7.124;2023-02-01T05:48:56;22.50;;;5.45;;
46701;SDS011;33449;50.712;7.124;2023-02-01T05:51:23;11.93;;;3.47;;
46701;SDS011;33449;50.712;7.124;2023-02-01T05:53:50;19.30;;;4.85;;
46701;SDS011;33449;50.712;7.124;2023-02-01T05:56:18;11.40;;;3.50;;
46701;SDS011;33449;50.712;7.124;2023-02-01T05:59:02;18.48;;;4.15;;
46701;SDS011;33449;50.712;7.124;2023-02-01T06:01:29;16.48;;;3.75;;
46701;SDS011;33449;50.712;7.124;2023-02-01T06:03:56;21.48;;;4.15;;
46701;SDS011;33449;50.712;7.124;2023-02-01T06:06:23;19.10;;;3.65;;
46701;SDS011;33449;50.712;7.124;2023-02-01T06:08:50;18.20;;;3.58;;
46701;SDS011;33449;50.712;7.124;2023-02-01T06:13:59;14.13;;;3.35;;
46701;SDS011;33449;50.712;7.124;2023-02-01T06:16:26;11.40;;;2.50;;
46701;SDS011;33449;50.712;7.124;2023-02-01T06:18:54;15.57;;;4.10;;
46701;SDS011;33449;50.712;7.124;2023-02-01T06:21:21;14.25;;;2.85;;
46701;SDS011;33449;50.712;7.124;2023-02-01T06:23:52;18.23;;;2.92;;
46701;SDS011;33449;50.712;7.124;2023-02-01T06:29:01;12.80;;;3.33;;
46701;SDS011;33449;50.712;7.124;2023-02-01T06:31:28;15.18;;;3.33;;
46701;SDS011;33449;50.712;7.124;2023-02-01T06:33:55;16.83;;;3.60;;
46701;SDS011;33449;50.712;7.124;2023-02-01T06:36:23;18.08;;;4.55;;
46701;SDS011;33449;50.712;7.124;2023-02-01T06:38:50;26.00;;;3.38;;
46701;SDS011;33449;50.712;7.124;2023-02-01T06:43:48;18.27;;;5.20;;
46701;SDS011;33449;50.712;7.124;2023-02-01T06:46:17;15.40;;;3.42;;
46701;SDS011;33449;50.712;7.124;2023-02-01T06:48:44;21.60;;;3.72;;
46701;SDS011;33449;50.712;7.124;2023-02-01T06:51:22;15.20;;;3.60;;
46701;SDS011;33449;50.712;7.124;2023-02-01T06:53:51;19.13;;;4.40;;
46701;SDS011;33449;50.712;7.124;2023-02-01T06:58:50;16.63;;;3.97;;
46701;SDS011;33449;50.712;7.124;2023-02-01T07:01:17;24.08;;;5.00;;
46701;SDS011;33449;50.712;7.124;2023-02-01T07:03:47;17.17;;;3.50;;
46701;SDS011;33449;50.712;7.124;2023-02-01T07:06:15;19.65;;;6.47;;
46701;SDS011;33449;50.712;7.124;2023-02-01T07:08:42;23.17;;;3.92;;
46701;SDS011;33449;50.712;7.124;2023-02-01T07:13:43;16.52;;;4.60;;
46701;SDS011;33449;50.712;7.124;2023-02-01T07:16:13;26.48;;;5.50;;
46701;SDS011;33449;50.712;7.124;2023-02-01T07:18:40;21.58;;;4.88;;
46701;SDS011;33449;50.712;7.124;2023-02-01T07:21:08;19.27;;;5.00;;
46701;SDS011;33449;50.712;7.124;2023-02-01T07:23:35;22.05;;;4.78;;
46701;SDS011;33449;50.712;7.124;2023-02-01T07:28:38;17.63;;;4.18;;
46701;SDS011;33449;50.712;7.124;2023-02-01T07:31:06;26.67;;;4.30;;
46701;SDS011;33449;50.712;7.124;2023-02-01T07:33:33;20.55;;;4.63;;
46701;SDS011;33449;50.712;7.124;2023-02-01T07:36:04;16.98;;;4.32;;
46701;SDS011;33449;50.712;7.124;2023-02-01T07:38:32;13.43;;;4.10;;
46701;SDS011;33449;50.712;7.124;2023-02-01T07:43:46;18.80;;;4.30;;
46701;SDS011;33449;50.712;7.124;2023-02-01T07:46:13;16.17;;;4.50;;
46701;SDS011;33449;50.712;7.124;2023-02-01T07:48:41;19.02;;;4.55;;
46701;SDS011;33449;50.712;7.124;2023-02-01T07:51:10;21.15;;;4.47;;
46701;SDS011;33449;50.712;7.124;2023-02-01T07:53:37;22.48;;;5.15;;
46701;SDS011;33449;50.712;7.124;2023-02-01T07:58:32;15.45;;;4.80;;
46701;SDS011;33449;50.712;7.124;2023-02-01T08:00:59;19.23;;;5.07;;
46701;SDS011;33449;50.712;7.124;2023-02-01T08:03:48;15.00;;;4.30;;
46701;SDS011;33449;50.712;7.124;2023-02-01T08:06:16;13.02;;;6.40;;
46701;SDS011;33449;50.712;7.124;2023-02-01T08:08:43;20.58;;;5.00;;
46701;SDS011;33449;50.712;7.124;2023-02-01T08:11:11;23.08;;;5.72;;
46701;SDS011;33449;50.712;7.124;2023-02-01T08:13:38;16.08;;;4.00;;
46701;SDS011;33449;50.712;7.124;2023-02-01T08:16:06;12.77;;;2.92;;
46701;SDS011;33449;50.712;7.124;2023-02-01T08:18:34;15.68;;;4.53;;
46701;SDS011;33449;50.712;7.124;2023-02-01T08:21:05;20.17;;;4.47;;
46701;SDS011;33449;50.712;7.124;2023-02-01T08:23:33;19.30;;;6.25;;
46701;SDS011;33449;50.712;7.124;2023-02-01T08:26:04;14.55;;;4.28;;
46701;SDS011;33449;50.712;7.124;2023-02-01T08:28:31;30.25;;;5.15;;
46701;SDS011;33449;50.712;7.124;2023-02-01T08:30:58;18.80;;;4.15;;
46701;SDS011;33449;50.712;7.124;2023-02-01T08:33:26;14.20;;;4.30;;
46701;SDS011;33449;50.712;7.124;2023-02-01T08:35:53;13.05;;;5.10;;
46701;SDS011;33449;50.712;7.124;2023-02-01T08:38:20;21.23;;;5.20;;
46701;SDS011;33449;50.712;7.124;2023-02-01T08:43:23;22.88;;;4.57;;
46701;SDS011;33449;50.712;7.124;2023-02-01T08:45:53;26.52;;;5.55;;
46701;SDS011;33449;50.712;7.124;2023-02-01T08:48:22;20.10;;;4.60;;
46701;SDS011;33449;50.712;7.124;2023-02-01T08:50:49;20.27;;;3.97;;
46701;SDS011;33449;50.712;7.124;2023-02-01T08:53:16;16.65;;;4.38;;
46701;SDS011;33449;50.712;7.124;2023-02-01T08:55:45;19.95;;;5.32;;
46701;SDS011;33449;50.712;7.124;2023-02-01T08:58:16;25.77;;;6.28;;
46701;SDS011;33449;50.712;7.124;2023-02-01T09:00:48;21.85;;;4.78;;
46701;SDS011;33449;50.712;7.124;2023-02-01T09:03:15;18.17;;;3.97;;
46701;SDS011;33449;50.712;7.124;2023-02-01T09:05:45;19.77;;;4.33;;
46701;SDS011;33449;50.712;7.124;2023-02-01T09:08:15;17.10;;;4.20;;
46701;SDS011;33449;50.712;7.124;2023-02-01T09:10:45;19.27;;;4.50;;
46701;SDS011;33449;50.712;7.124;2023-02-01T09:13:12;17.98;;;4.65;;
46701;SDS011;33449;50.712;7.124;2023-02-01T09:15:39;16.10;;;4.63;;
46701;SDS011;33449;50.712;7.124;2023-02-01T09:18:06;19.67;;;3.10;;
46701;SDS011;33449;50.712;7.124;2023-02-01T09:20:33;14.95;;;3.60;;
46701;SDS011;33449;50.712;7.124;2023-02-01T09:23:00;19.52;;;4.47;;
46701;SDS011;33449;50.712;7.124;2023-02-01T09:25:27;21.30;;;3.75;;
46701;SDS011;33449;50.712;7.124;2023-02-01T09:28:21;8.32;;;3.10;;
46701;SDS011;33449;50.712;7.124;2023-02-01T09:30:48;18.10;;;3.40;;
46701;SDS011;33449;50.712;7.124;2023-02-01T09:33:16;16.60;;;3.42;;
46701;SDS011;33449;50.712;7.124;2023-02-01T09:35:43;21.80;;;4.15;;
46701;SDS011;33449;50.712;7.124;2023-02-01T09:38:10;17.90;;;3.40;;
46701;SDS011;33449;50.712;7.124;2023-02-01T09:40:39;18.70;;;3.45;;
46701;SDS011;33449;50.712;7.124;2023-02-01T09:43:16;14.40;;;3.47;;
46701;SDS011;33449;50.712;7.124;2023-02-01T09:48:32;17.80;;;3.28;;
46701;SDS011;33449;50.712;7.124;2023-02-01T09:51:02;20.90;;;4.95;;
46701;SDS011;33449;50.712;7.124;2023-02-01T09:53:34;16.40;;;3.60;;
46701;SDS011;33449;50.712;7.124;2023-02-01T10:01:16;21.00;;;3.90;;
46701;SDS011;33449;50.712;7.124;2023-02-01T10:03:45;24.50;;;3.72;;
46701;SDS011;33449;50.712;7.124;2023-02-01T10:08:59;20.40;;;3.08;;
46701;SDS011;33449;50.712;7.124;2023-02-01T10:14:27;13.40;;;3.65;;
46701;SDS011;33449;50.712;7.124;2023-02-01T10:22:06;17.17;;;5.50;;
46701;SDS011;33449;50.712;7.124;2023-02-01T10:24:37;13.48;;;3.15;;
46701;SDS011;33449;50.712;7.124;2023-02-01T10:29:36;15.50;;;3.17;;
46701;SDS011;33449;50.712;7.124;2023-02-01T10:32:09;16.42;;;2.80;;
46701;SDS011;33449;50.712;7.124;2023-02-01T10:34:38;20.88;;;3.80;;
46701;SDS011;33449;50.712;7.124;2023-02-01T10:39:56;15.35;;;4.60;;
46701;SDS011;33449;50.712;7.124;2023-02-01T10:42:26;19.23;;;3.92;;
46701;SDS011;33449;50.712;7.124;2023-02-01T10:44:54;8.18;;;2.65;;
46701;SDS011;33449;50.712;7.124;2023-02-01T10:47:21;10.30;;;2.28;;
46701;SDS011;33449;50.712;7.124;2023-02-01T10:55:15;15.07;;;4.15;;
46701;SDS011;33449;50.712;7.124;2023-02-01T10:57:55;13.70;;;3.50;;
46701;SDS011;33449;50.712;7.124;2023-02-01T11:00:22;12.45;;;3.42;;
46701;SDS011;33449;50.712;7.124;2023-02-01T11:02:50;11.57;;;2.97;;
46701;SDS011;33449;50.712;7.124;2023-02-01T11:05:17;13.93;;;3.10;;
46701;SDS011;33449;50.712;7.124;2023-02-01T11:07:51;14.73;;;3.72;;
46701;SDS011;33449;50.712;7.124;2023-02-01T11:12:54;10.30;;;2.55;;
46701;SDS011;33449;50.712;7.124;2023-02-01T11:15:22;16.85;;;3.20;;
46701;SDS011;33449;50.712;7.124;2023-02-01T11:17:51;13.88;;;4.03;;
46701;SDS011;33449;50.712;7.124;2023-02-01T11:20:34;12.05;;;3.17;;
46701;SDS011;33449;50.712;7.124;2023-02-01T11:23:02;11.30;;;2.58;;
46701;SDS011;33449;50.712;7.124;2023-02-01T11:25:29;12.63;;;3.22;;
46701;SDS011;33449;50.712;7.124;2023-02-01T11:27:57;10.10;;;2.78;;
46701;SDS011;33449;50.712;7.124;2023-02-01T11:30:38;17.48;;;3.17;;
46701;SDS011;33449;50.712;7.124;2023-02-01T11:33:12;23.13;;;3.55;;
46701;SDS011;33449;50.712;7.124;2023-02-01T11:38:21;19.02;;;3.17;;
46701;SDS011;33449;50.712;7.124;2023-02-01T11:40:49;17.65;;;3.90;;
46701;SDS011;33449;50.712;7.124;2023-02-01T11:43:19;14.45;;;3.05;;
46701;SDS011;33449;50.712;7.124;2023-02-01T11:45:53;10.18;;;3.63;;
46701;SDS011;33449;50.712;7.124;2023-02-01T11:48:20;20.23;;;4.15;;
46701;SDS011;33449;50.712;7.124;2023-02-01T11:51:02;13.48;;;4.03;;
46701;SDS011;33449;50.712;7.124;2023-02-01T11:53:41;23.92;;;4.03;;
46701;SDS011;33449;50.712;7.124;2023-02-01T12:01:44;13.40;;;3.83;;
46701;SDS011;33449;50.712;7.124;2023-02-01T12:09:55;12.75;;;3.55;;
46701;SDS011;33449;50.712;7.124;2023-02-01T12:15:13;13.07;;;2.92;;
46701;SDS011;33449;50.712;7.124;2023-02-01T12:30:35;14.15;;;3.25;;
46701;SDS011;33449;50.712;7.124;2023-02-01T12:43:36;24.15;;;3.42;;
46701;SDS011;33449;50.712;7.124;2023-02-01T12:51:41;17.35;;;3.17;;
46701;SDS011;33449;50.712;7.124;2023-02-01T12:54:20;14.75;;;3.58;;
46701;SDS011;33449;50.712;7.124;2023-02-01T12:56:52;10.50;;;3.05;;
46701;SDS011;33449;50.712;7.124;2023-02-01T13:04:37;11.70;;;4.47;;
46701;SDS011;33449;50.712;7.124;2023-02-01T13:07:09;15.50;;;3.67;;
46701;SDS011;33449;50.712;7.124;2023-02-01T13:14:52;18.10;;;4.70;;
46701;SDS011;33449;50.712;7.124;2023-02-01T13:17:22;12.93;;;4.60;;
46701;SDS011;33449;50.712;7.124;2023-02-01T13:22:34;10.77;;;2.15;;
46701;SDS011;33449;50.712;7.124;2023-02-01T13:25:13;12.38;;;2.78;;
46701;SDS011;33449;50.712;7.124;2023-02-01T13:30:24;9.27;;;2.00;;
46701;SDS011;33449;50.712;7.124;2023-02-01T13:46:58;16.02;;;2.42;;
46701;SDS011;33449;50.712;7.124;2023-02-01T13:49:27;12.48;;;3.38;;
46701;SDS011;33449;50.712;7.124;2023-02-01T13:51:55;14.52;;;3.67;;
46701;SDS011;33449;50.712;7.124;2023-02-01T13:54:30;12.25;;;2.70;;
46701;SDS011;33449;50.712;7.124;2023-02-01T14:13:12;16.92;;;2.92;;
46701;SDS011;33449;50.712;7.124;2023-02-01T14:31:54;13.02;;;2.80;;
46701;SDS011;33449;50.712;7.124;2023-02-01T14:34:29;18.98;;;3.25;;
46701;SDS011;33449;50.712;7.124;2023-02-01T14:36:59;11.18;;;2.38;;
46701;SDS011;33449;50.712;7.124;2023-02-01T14:50:44;16.20;;;3.03;;
46701;SDS011;33449;50.712;7.124;2023-02-01T15:01:01;16.63;;;3.53;;
46701;SDS011;33449;50.712;7.124;2023-02-01T15:05:56;8.70;;;2.08;;
46701;SDS011;33449;50.712;7.124;2023-02-01T15:08:28;10.73;;;1.92;;
46701;SDS011;33449;50.712;7.124;2023-02-01T15:10:57;6.35;;;1.63;;
46701;SDS011;33449;50.712;7.124;2023-02-01T15:13:26;8.45;;;2.17;;
46701;SDS011;33449;50.712;7.124;2023-02-01T15:16:27;12.77;;;3.10;;
46701;SDS011;33449;50.712;7.124;2023-02-01T15:18:48;9.23;;;3.90;;
46701;SDS011;33449;50.712;7.124;2023-02-01T15:21:19;12.88;;;2.35;;
46701;SDS011;33449;50.712;7.124;2023-02-01T15:24:10;9.75;;;3.38;;
46701;SDS011;33449;50.712;7.124;2023-02-01T15:26:52;10.80;;;2.53;;
46701;SDS011;33449;50.712;7.124;2023-02-01T15:29:20;7.00;;;2.65;;
46701;SDS011;33449;50.712;7.124;2023-02-01T15:31:49;12.10;;;2.75;;
46701;SDS011;33449;50.712;7.124;2023-02-01T15:34:17;13.93;;;2.65;;
46701;SDS011;33449;50.712;7.124;2023-02-01T15:36:44;10.18;;;2.53;;
46701;SDS011;33449;50.712;7.124;2023-02-01T15:39:27;11.65;;;2.40;;
46701;SDS011;33449;50.712;7.124;2023-02-01T15:41:57;10.75;;;2.00;;
46701;SDS011;33449;50.712;7.124;2023-02-01T15:46:55;9.60;;;1.92;;
46701;SDS011;33449;50.712;7.124;2023-02-01T15:49:38;8.20;;;2.30;;
46701;SDS011;33449;50.712;7.124;2023-02-01T15:52:11;17.55;;;3.00;;
46701;SDS011;33449;50.712;7.124;2023-02-01T15:54:43;10.13;;;2.10;;
46701;SDS011;33449;50.712;7.124;2023-02-01T15:57:12;16.33;;;4.22;;
46701;SDS011;33449;50.712;7.124;2023-02-01T15:59:45;5.47;;;1.98;;
46701;SDS011;33449;50.712;7.124;2023-02-01T16:04:59;11.07;;;1.85;;
46701;SDS011;33449;50.712;7.124;2023-02-01T16:07:27;12.40;;;2.88;;
46701;SDS011;33449;50.712;7.124;2023-02-01T16:09:56;11.02;;;3.10;;
46701;SDS011;33449;50.712;7.124;2023-02-01T16:12:31;14.43;;;3.05;;
46701;SDS011;33449;50.712;7.124;2023-02-01T16:17:49;12.63;;;2.22;;
46701;SDS011;33449;50.712;7.124;2023-02-01T16:20:16;19.58;;;4.35;;
46701;SDS011;33449;50.712;7.124;2023-02-01T16:22:43;5.85;;;2.13;;
46701;SDS011;33449;50.712;7.124;2023-02-01T16:25:10;14.43;;;3.22;;
46701;SDS011;33449;50.712;7.124;2023-02-01T16:27:37;14.80;;;3.75;;
46701;SDS011;33449;50.712;7.124;2023-02-01T16:32:41;5.93;;;2.53;;
46701;SDS011;33449;50.712;7.124;2023-02-01T16:38:05;10.52;;;3.17;;
46701;SDS011;33449;50.712;7.124;2023-02-01T16:40:34;10.82;;;2.25;;
46701;SDS011;33449;50.712;7.124;2023-02-01T16:43:05;15.45;;;2.90;;
46701;SDS011;33449;50.712;7.124;2023-02-01T16:45:36;27.77;;;5.20;;
46701;SDS011;33449;50.712;7.124;2023-02-01T16:50:36;21.35;;;5.72;;
46701;SDS011;33449;50.712;7.124;2023-02-01T16:53:04;20.60;;;3.65;;
46701;SDS011;33449;50.712;7.124;2023-02-01T16:55:31;17.45;;;3.10;;
46701;SDS011;33449;50.712;7.124;2023-02-01T16:57:58;11.52;;;3.92;;
46701;SDS011;33449;50.712;7.124;2023-02-01T17:00:25;13.35;;;4.07;;
46701;SDS011;33449;50.712;7.124;2023-02-01T17:05:32;15.25;;;2.90;;
46701;SDS011;33449;50.712;7.124;2023-02-01T17:08:02;12.13;;;3.08;;
46701;SDS011;33449;50.712;7.124;2023-02-01T17:10:32;11.88;;;2.92;;
46701;SDS011;33449;50.712;7.124;2023-02-01T17:13:01;23.25;;;3.63;;
46701;SDS011;33449;50.712;7.124;2023-02-01T17:15:32;11.77;;;3.03;;
46701;SDS011;33449;50.712;7.124;2023-02-01T17:18:01;18.65;;;3.95;;
46701;SDS011;33449;50.712;7.124;2023-02-01T17:20:29;15.63;;;3.20;;
46701;SDS011;33449;50.712;7.124;2023-02-01T17:23:05;16.35;;;3.03;;
46701;SDS011;33449;50.712;7.124;2023-02-01T17:25:32;8.02;;;3.10;;
46701;SDS011;33449;50.712;7.124;2023-02-01T17:27:59;13.00;;;4.15;;
46701;SDS011;33449;50.712;7.124;2023-02-01T17:30:27;16.05;;;3.30;;
46701;SDS011;33449;50.712;7.124;2023-02-01T17:32:54;17.10;;;3.70;;
46701;SDS011;33449;50.712;7.124;2023-02-01T17:35:22;12.82;;;3.60;;
46701;SDS011;33449;50.712;7.124;2023-02-01T17:37:50;12.52;;;3.53;;
46701;SDS011;33449;50.712;7.124;2023-02-01T17:40:19;15.13;;;3.95;;
46701;SDS011;33449;50.712;7.124;2023-02-01T17:42:46;16.60;;;3.55;;
46701;SDS011;33449;50.712;7.124;2023-02-01T17:45:32;11.38;;;3.03;;
46701;SDS011;33449;50.712;7.124;2023-02-01T17:48:02;23.75;;;4.57;;
46701;SDS011;33449;50.712;7.124;2023-02-01T17:50:30;10.80;;;3.33;;
46701;SDS011;33449;50.712;7.124;2023-02-01T17:52:57;15.95;;;3.65;;
46701;SDS011;33449;50.712;7.124;2023-02-01T17:55:25;11.43;;;4.15;;
46701;SDS011;33449;50.712;7.124;2023-02-01T17:57:52;11.68;;;3.83;;
46701;SDS011;33449;50.712;7.124;2023-02-01T18:00:19;20.85;;;4.00;;
46701;SDS011;33449;50.712;7.124;2023-02-01T18:02:47;6.10;;;2.90;;
46701;SDS011;33449;50.712;7.124;2023-02-01T18:05:26;11.60;;;3.67;;
46701;SDS011;33449;50.712;7.124;2023-02-01T18:07:54;19.35;;;3.83;;
46701;SDS011;33449;50.712;7.124;2023-02-01T18:10:21;10.68;;;4.03;;
46701;SDS011;33449;50.712;7.124;2023-02-01T18:12:48;15.15;;;5.03;;
46701;SDS011;33449;50.712;7.124;2023-02-01T18:15:19;21.38;;;5.82;;
46701;SDS011;33449;50.712;7.124;2023-02-01T18:23:17;15.73;;;4.95;;
46701;SDS011;33449;50.712;7.124;2023-02-01T18:25:45;16.13;;;5.05;;
46701;SDS011;33449;50.712;7.124;2023-02-01T18:28:14;13.05;;;3.47;;
46701;SDS011;33449;50.712;7.124;2023-02-01T18:30:46;11.48;;;3.25;;
46701;SDS011;33449;50.712;7.124;2023-02-01T18:33:14;13.85;;;4.35;;
46701;SDS011;33449;50.712;7.124;2023-02-01T18:38:13;21.00;;;4.63;;
46701;SDS011;33449;50.712;7.124;2023-02-01T18:43:09;21.52;;;6.47;;
46701;SDS011;33449;50.712;7.124;2023-02-01T18:45:38;13.10;;;4.82;;
46701;SDS011;33449;50.712;7.124;2023-02-01T18:48:06;13.00;;;4.50;;
46701;SDS011;33449;50.712;7.124;2023-02-01T18:53:16;18.85;;;4.28;;
46701;SDS011;33449;50.712;7.124;2023-02-01T18:55:45;11.35;;;3.47;;
46701;SDS011;33449;50.712;7.124;2023-02-01T18:58:13;16.33;;;5.50;;
46701;SDS011;33449;50.712;7.124;2023-02-01T19:00:41;12.63;;;3.95;;
46701;SDS011;33449;50.712;7.124;2023-02-01T19:03:12;15.27;;;4.30;;
46701;SDS011;33449;50.712;7.124;2023-02-01T19:08:10;16.15;;;4.55;;
46701;SDS011;33449;50.712;7.124;2023-02-01T19:10:38;19.00;;;4.78;;
46701;SDS011;33449;50.712;7.124;2023-02-01T19:13:09;16.10;;;4.27;;